sensor_id;sensor_type;location;lat;lon;timestamp;temperature;humidity
25718;DHT22;13574;52.040;5.692;2023-03-05T00:01:14;9.80;99.90
25718;DHT22;13574;52.040;5.692;2023-03-05T00:03:40;9.60;99.90
25718;DHT22;13574;52.040;5.692;2023-03-05T00:06:06;9.70;99.90
25718;DHT22;13574;52.040;5.692;2023-03-05T00:08:32;9.70;99.90
25718;DHT22;13574;52.040;5.692;2023-03-05T00:11:01;9.60;99.90
25718;DHT22;13574;52.040;5.692;2023-03-05T00:13:28;9.70;99.90
25718;DHT22;13574;52.040;5.692;2023-03-05T00:15:54;9.80;99.90
25718;DHT22;13574;52.040;5.692;2023-03-05T00:18:20;9.80;99.90
25718;DHT22;13574;52.040;5.692;2023-03-05T00:20:46;10.00;99.90
25718;DHT22;13574;52.040;5.692;2023-03-05T00:23:12;10.00;99.90
25718;DHT22;13574;52.040;5.692;2023-03-05T00:25:38;9.90;99.90
25718;DHT22;13574;52.040;5.692;2023-03-05T00:28:05;10.00;99.90
25718;DHT22;13574;52.040;5.692;2023-03-05T00:30:33;10.00;99.90
25718;DHT22;13574;52.040;5.692;2023-03-05T00:32:59;9.90;99.90
25718;DHT22;13574;52.040;5.692;2023-03-05T00:35:24;10.00;99.90
25718;DHT22;13574;52.040;5.692;2023-03-05T00:37:50;10.00;99.90
25718;DHT22;13574;52.040;5.692;2023-03-05T00:40:16;10.00;99.90
25718;DHT22;13574;52.040;5.692;2023-03-05T00:42:42;10.10;99.90
25718;DHT22;13574;52.040;5.692;2023-03-05T00:45:09;10.00;99.90
25718;DHT22;13574;52.040;5.692;2023-03-05T00:47:35;9.90;99.90
25718;DHT22;13574;52.040;5.692;2023-03-05T00:50:02;9.90;99.90
25718;DHT22;13574;52.040;5.692;2023-03-05T00:52:28;9.80;99.90
25718;DHT22;13574;52.040;5.692;2023-03-05T00:54:54;9.70;99.90
25718;DHT22;13574;52.040;5.692;2023-03-05T00:57:19;9.80;99.90
25718;DHT22;13574;52.040;5.692;2023-03-05T00:59:45;10.00;99.90
25718;DHT22;13574;52.040;5.692;2023-03-05T01:02:11;9.90;99.90
25718;DHT22;13574;52.040;5.692;2023-03-05T01:04:40;9.90;99.90
25718;DHT22;13574;52.040;5.692;2023-03-05T01:07:06;9.90;99.90
25718;DHT22;13574;52.040;5.692;2023-03-05T01:09:34;9.80;99.90
25718;DHT22;13574;52.040;5.692;2023-03-05T01:12:00;9.80;99.90
25718;DHT22;13574;52.040;5.692;2023-03-05T01:14:25;9.90;99.90
25718;DHT22;13574;52.040;5.692;2023-03-05T01:16:52;9.80;99.90
25718;DHT22;13574;52.040;5.692;2023-03-05T01:19:18;9.90;99.90
25718;DHT22;13574;52.040;5.692;2023-03-05T01:21:44;9.90;99.90
25718;DHT22;13574;52.040;5.692;2023-03-05T01:24:09;9.90;99.90
25718;DHT22;13574;52.040;5.692;2023-03-05T01:26:35;9.90;99.90
25718;DHT22;13574;52.040;5.692;2023-03-05T01:29:01;9.80;99.90
25718;DHT22;13574;52.040;5.692;2023-03-05T01:31:27;9.70;99.90
25718;DHT22;13574;52.040;5.692;2023-03-05T01:33:53;9.70;99.90
25718;DHT22;13574;52.040;5.692;2023-03-05T01:36:20;9.70;99.90
25718;DHT22;13574;52.040;5.692;2023-03-05T01:38:46;9.70;99.90
25718;DHT22;13574;52.040;5.692;2023-03-05T01:41:13;9.70;99.90
25718;DHT22;13574;52.040;5.692;2023-03-05T01:43:40;9.80;99.90
25718;DHT22;13574;52.040;5.692;2023-03-05T01:49:14;9.70;99.90
25718;DHT22;13574;52.040;5.692;2023-03-05T01:52:09;9.70;99.90
25718;DHT22;13574;52.040;5.692;2023-03-05T01:54:42;9.70;99.90
25718;DHT22;13574;52.040;5.692;2023-03-05T01:57:13;9.70;99.90
25718;DHT22;13574;52.040;5.692;2023-03-05T01:59:41;9.60;99.90
25718;DHT22;13574;52.040;5.692;2023-03-05T02:02:08;9.50;99.90
25718;DHT22;13574;52.040;5.692;2023-03-05T02:04:51;9.50;99.90
25718;DHT22;13574;52.040;5.692;2023-03-05T02:07:19;9.60;99.90
25718;DHT22;13574;52.040;5.692;2023-03-05T02:09:45;9.60;99.90
25718;DHT22;13574;52.040;5.692;2023-03-05T02:12:12;9.60;99.90
25718;DHT22;13574;52.040;5.692;2023-03-05T02:14:39;9.50;99.90
25718;DHT22;13574;52.040;5.692;2023-03-05T02:17:07;9.60;99.90
25718;DHT22;13574;52.040;5.692;2023-03-05T02:19:50;9.60;99.90
25718;DHT22;13574;52.040;5.692;2023-03-05T02:22:18;9.70;99.90
25718;DHT22;13574;52.040;5.692;2023-03-05T02:24:44;9.70;99.90
25718;DHT22;13574;52.040;5.692;2023-03-05T02:27:12;9.70;99.90
25718;DHT22;13574;52.040;5.692;2023-03-05T02:29:41;9.70;99.90
25718;DHT22;13574;52.040;5.692;2023-03-05T02:32:07;9.70;99.90
25718;DHT22;13574;52.040;5.692;2023-03-05T02:34:34;9.70;99.90
25718;DHT22;13574;52.040;5.692;2023-03-05T02:37:00;9.70;99.90
25718;DHT22;13574;52.040;5.692;2023-03-05T02:39:27;9.70;99.90
25718;DHT22;13574;52.040;5.692;2023-03-05T02:41:52;9.70;99.90
25718;DHT22;13574;52.040;5.692;2023-03-05T02:44:18;9.60;99.90
25718;DHT22;13574;52.040;5.692;2023-03-05T02:46:45;9.50;99.90
25718;DHT22;13574;52.040;5.692;2023-03-05T02:49:11;9.50;99.90
25718;DHT22;13574;52.040;5.692;2023-03-05T02:51:37;9.60;99.90
25718;DHT22;13574;52.040;5.692;2023-03-05T02:54:02;9.60;99.90
25718;DHT22;13574;52.040;5.692;2023-03-05T02:56:28;9.60;99.90
25718;DHT22;13574;52.040;5.692;2023-03-05T02:58:54;9.60;99.90
25718;DHT22;13574;52.040;5.692;2023-03-05T03:01:19;9.50;99.90
25718;DHT22;13574;52.040;5.692;2023-03-05T03:03:46;9.60;99.90
25718;DHT22;13574;52.040;5.692;2023-03-05T03:06:11;9.60;99.90
25718;DHT22;13574;52.040;5.692;2023-03-05T03:08:37;9.50;99.90
25718;DHT22;13574;52.040;5.692;2023-03-05T03:11:07;9.60;99.90
25718;DHT22;13574;52.040;5.692;2023-03-05T03:13:33;9.60;99.90
25718;DHT22;13574;52.040;5.692;2023-03-05T03:16:07;9.60;99.90
25718;DHT22;13574;52.040;5.692;2023-03-05T03:18:33;9.60;99.90
25718;DHT22;13574;52.040;5.692;2023-03-05T03:20:59;9.60;99.90
25718;DHT22;13574;52.040;5.692;2023-03-05T03:23:25;9.50;99.90
25718;DHT22;13574;52.040;5.692;2023-03-05T03:25:51;9.40;99.90
25718;DHT22;13574;52.040;5.692;2023-03-05T03:28:17;9.50;99.90
25718;DHT22;13574;52.040;5.692;2023-03-05T03:30:42;9.30;99.90
25718;DHT22;13574;52.040;5.692;2023-03-05T03:33:09;9.40;99.90
25718;DHT22;13574;52.040;5.692;2023-03-05T03:35:34;9.30;99.90
25718;DHT22;13574;52.040;5.692;2023-03-05T03:38:00;9.40;99.90
25718;DHT22;13574;52.040;5.692;2023-03-05T03:40:26;9.50;99.90
25718;DHT22;13574;52.040;5.692;2023-03-05T03:42:52;9.30;99.90
25718;DHT22;13574;52.040;5.692;2023-03-05T03:45:18;9.30;99.90
25718;DHT22;13574;52.040;5.692;2023-03-05T03:47:43;9.30;99.90
25718;DHT22;13574;52.040;5.692;2023-03-05T03:50:09;9.30;99.90
25718;DHT22;13574;52.040;5.692;2023-03-05T03:52:35;9.30;99.90
25718;DHT22;13574;52.040;5.692;2023-03-05T03:55:01;9.30;99.90
25718;DHT22;13574;52.040;5.692;2023-03-05T03:57:30;9.20;99.90
25718;DHT22;13574;52.040;5.692;2023-03-05T03:59:58;9.20;99.90
25718;DHT22;13574;52.040;5.692;2023-03-05T04:02:24;9.20;99.90
25718;DHT22;13574;52.040;5.692;2023-03-05T04:04:49;9.20;99.90
25718;DHT22;13574;52.040;5.692;2023-03-05T04:07:15;9.10;99.90
25718;DHT22;13574;52.040;5.692;2023-03-05T04:09:41;9.00;99.90
25718;DHT22;13574;52.040;5.692;2023-03-05T04:12:07;9.00;99.90
25718;DHT22;13574;52.040;5.692;2023-03-05T04:14:33;9.00;99.90
25718;DHT22;13574;52.040;5.692;2023-03-05T04:16:58;9.00;99.90
25718;DHT22;13574;52.040;5.692;2023-03-05T04:19:24;9.00;99.90
25718;DHT22;13574;52.040;5.692;2023-03-05T04:21:50;9.00;99.90
25718;DHT22;13574;52.040;5.692;2023-03-05T04:24:15;9.10;99.90
25718;DHT22;13574;52.040;5.692;2023-03-05T04:26:41;9.00;99.90
25718;DHT22;13574;52.040;5.692;2023-03-05T04:29:07;9.10;99.90
25718;DHT22;13574;52.040;5.692;2023-03-05T04:31:32;9.10;99.90
25718;DHT22;13574;52.040;5.692;2023-03-05T04:33:58;8.90;99.90
25718;DHT22;13574;52.040;5.692;2023-03-05T04:36:24;9.00;99.90
25718;DHT22;13574;52.040;5.692;2023-03-05T04:38:50;9.20;99.90
25718;DHT22;13574;52.040;5.692;2023-03-05T04:41:16;9.20;99.90
25718;DHT22;13574;52.040;5.692;2023-03-05T04:43:41;9.20;99.90
25718;DHT22;13574;52.040;5.692;2023-03-05T04:46:07;9.30;99.90
25718;DHT22;13574;52.040;5.692;2023-03-05T04:48:33;9.30;99.90
25718;DHT22;13574;52.040;5.692;2023-03-05T04:50:58;9.30;99.90
25718;DHT22;13574;52.040;5.692;2023-03-05T04:53:24;9.20;99.90
25718;DHT22;13574;52.040;5.692;2023-03-05T04:55:54;9.20;99.90
25718;DHT22;13574;52.040;5.692;2023-03-05T04:58:20;9.10;99.90
25718;DHT22;13574;52.040;5.692;2023-03-05T05:00:46;9.20;99.90
25718;DHT22;13574;52.040;5.692;2023-03-05T05:03:14;9.20;99.90
25718;DHT22;13574;52.040;5.692;2023-03-05T05:05:40;9.20;99.90
25718;DHT22;13574;52.040;5.692;2023-03-05T05:08:06;9.10;99.90
25718;DHT22;13574;52.040;5.692;2023-03-05T05:10:32;9.10;99.90
25718;DHT22;13574;52.040;5.692;2023-03-05T05:12:59;8.90;99.90
25718;DHT22;13574;52.040;5.692;2023-03-05T05:15:25;9.00;99.90
25718;DHT22;13574;52.040;5.692;2023-03-05T05:17:50;9.10;99.90
25718;DHT22;13574;52.040;5.692;2023-03-05T05:20:16;9.00;99.90
25718;DHT22;13574;52.040;5.692;2023-03-05T05:22:42;9.10;99.90
25718;DHT22;13574;52.040;5.692;2023-03-05T05:25:08;9.10;99.90
25718;DHT22;13574;52.040;5.692;2023-03-05T05:27:35;9.20;99.90
25718;DHT22;13574;52.040;5.692;2023-03-05T05:30:01;9.20;99.90
25718;DHT22;13574;52.040;5.692;2023-03-05T05:32:28;9.20;99.90
25718;DHT22;13574;52.040;5.692;2023-03-05T05:34:55;9.30;99.90
25718;DHT22;13574;52.040;5.692;2023-03-05T05:37:21;9.30;99.90
25718;DHT22;13574;52.040;5.692;2023-03-05T05:39:47;9.30;99.90
25718;DHT22;13574;52.040;5.692;2023-03-05T05:42:16;9.30;99.90
25718;DHT22;13574;52.040;5.692;2023-03-05T05:44:42;9.20;99.90
25718;DHT22;13574;52.040;5.692;2023-03-05T05:47:08;9.20;99.90
25718;DHT22;13574;52.040;5.692;2023-03-05T05:49:33;9.10;99.90
25718;DHT22;13574;52.040;5.692;2023-03-05T05:51:59;9.00;99.90
25718;DHT22;13574;52.040;5.692;2023-03-05T05:54:24;9.00;99.90
25718;DHT22;13574;52.040;5.692;2023-03-05T05:56:50;9.00;99.90
25718;DHT22;13574;52.040;5.692;2023-03-05T05:59:16;9.10;99.90
25718;DHT22;13574;52.040;5.692;2023-03-05T06:01:41;9.20;99.90
25718;DHT22;13574;52.040;5.692;2023-03-05T06:04:07;9.30;99.90
25718;DHT22;13574;52.040;5.692;2023-03-05T06:06:33;9.20;99.90
25718;DHT22;13574;52.040;5.692;2023-03-05T06:08:59;9.20;99.90
25718;DHT22;13574;52.040;5.692;2023-03-05T06:11:25;9.20;99.90
25718;DHT22;13574;52.040;5.692;2023-03-05T06:13:51;9.30;99.90
25718;DHT22;13574;52.040;5.692;2023-03-05T06:16:20;9.20;99.90
25718;DHT22;13574;52.040;5.692;2023-03-05T06:18:46;9.20;99.90
25718;DHT22;13574;52.040;5.692;2023-03-05T06:21:15;9.00;99.90
25718;DHT22;13574;52.040;5.692;2023-03-05T06:23:41;9.00;99.90
25718;DHT22;13574;52.040;5.692;2023-03-05T06:26:07;9.00;99.90
25718;DHT22;13574;52.040;5.692;2023-03-05T06:28:34;9.00;99.90
25718;DHT22;13574;52.040;5.692;2023-03-05T06:31:26;9.10;99.90
25718;DHT22;13574;52.040;5.692;2023-03-05T06:33:58;9.20;99.90
25718;DHT22;13574;52.040;5.692;2023-03-05T06:36:28;9.30;99.90
25718;DHT22;13574;52.040;5.692;2023-03-05T06:38:55;9.10;99.90
25718;DHT22;13574;52.040;5.692;2023-03-05T06:41:23;9.10;99.90
25718;DHT22;13574;52.040;5.692;2023-03-05T06:43:49;9.20;99.90
25718;DHT22;13574;52.040;5.692;2023-03-05T06:51:47;9.10;99.90
25718;DHT22;13574;52.040;5.692;2023-03-05T06:54:16;9.00;99.90
25718;DHT22;13574;52.040;5.692;2023-03-05T06:56:44;9.00;99.90
25718;DHT22;13574;52.040;5.692;2023-03-05T06:59:11;9.20;99.90
25718;DHT22;13574;52.040;5.692;2023-03-05T07:01:37;9.00;99.90
25718;DHT22;13574;52.040;5.692;2023-03-05T07:04:03;9.20;99.90
25718;DHT22;13574;52.040;5.692;2023-03-05T07:06:35;9.40;99.90
25718;DHT22;13574;52.040;5.692;2023-03-05T07:09:01;9.50;99.90
25718;DHT22;13574;52.040;5.692;2023-03-05T07:11:28;9.20;99.90
25718;DHT22;13574;52.040;5.692;2023-03-05T07:13:54;9.20;99.90
25718;DHT22;13574;52.040;5.692;2023-03-05T07:16:22;9.20;99.90
25718;DHT22;13574;52.040;5.692;2023-03-05T07:18:54;9.40;99.90
25718;DHT22;13574;52.040;5.692;2023-03-05T07:21:25;9.40;99.90
25718;DHT22;13574;52.040;5.692;2023-03-05T07:23:55;9.60;99.90
25718;DHT22;13574;52.040;5.692;2023-03-05T07:26:21;9.50;99.90
25718;DHT22;13574;52.040;5.692;2023-03-05T07:28:47;9.80;99.90
25718;DHT22;13574;52.040;5.692;2023-03-05T07:31:19;10.00;99.90
25718;DHT22;13574;52.040;5.692;2023-03-05T07:33:46;10.00;99.90
25718;DHT22;13574;52.040;5.692;2023-03-05T07:36:12;9.60;99.90
25718;DHT22;13574;52.040;5.692;2023-03-05T07:38:38;9.70;99.90
25718;DHT22;13574;52.040;5.692;2023-03-05T07:41:10;9.90;99.90
25718;DHT22;13574;52.040;5.692;2023-03-05T07:43:36;10.00;99.90
25718;DHT22;13574;52.040;5.692;2023-03-05T07:46:09;10.20;99.90
25718;DHT22;13574;52.040;5.692;2023-03-05T07:48:36;10.40;99.90
25718;DHT22;13574;52.040;5.692;2023-03-05T07:51:11;10.50;99.90
25718;DHT22;13574;52.040;5.692;2023-03-05T07:53:42;10.60;99.90
25718;DHT22;13574;52.040;5.692;2023-03-05T07:56:09;10.80;99.90
25718;DHT22;13574;52.040;5.692;2023-03-05T07:58:35;10.70;99.90
25718;DHT22;13574;52.040;5.692;2023-03-05T08:01:09;10.60;99.90
25718;DHT22;13574;52.040;5.692;2023-03-05T08:03:35;10.50;99.90
25718;DHT22;13574;52.040;5.692;2023-03-05T08:06:04;10.30;99.90
25718;DHT22;13574;52.040;5.692;2023-03-05T08:08:30;10.30;99.90
25718;DHT22;13574;52.040;5.692;2023-03-05T08:10:56;10.00;99.90
25718;DHT22;13574;52.040;5.692;2023-03-05T08:13:21;10.00;99.90
25718;DHT22;13574;52.040;5.692;2023-03-05T08:15:52;10.20;99.90
25718;DHT22;13574;52.040;5.692;2023-03-05T08:18:18;10.10;99.90
25718;DHT22;13574;52.040;5.692;2023-03-05T08:20:44;10.10;99.90
25718;DHT22;13574;52.040;5.692;2023-03-05T08:23:09;10.20;99.90
25718;DHT22;13574;52.040;5.692;2023-03-05T08:25:35;10.10;99.90
25718;DHT22;13574;52.040;5.692;2023-03-05T08:28:02;10.00;99.90
25718;DHT22;13574;52.040;5.692;2023-03-05T08:30:30;9.50;99.90
25718;DHT22;13574;52.040;5.692;2023-03-05T08:32:56;9.10;99.90
25718;DHT22;13574;52.040;5.692;2023-03-05T08:35:22;9.40;99.90
25718;DHT22;13574;52.040;5.692;2023-03-05T08:37:48;9.40;99.90
25718;DHT22;13574;52.040;5.692;2023-03-05T08:40:14;9.60;99.90
25718;DHT22;13574;52.040;5.692;2023-03-05T08:42:42;9.70;99.90
25718;DHT22;13574;52.040;5.692;2023-03-05T08:45:11;10.00;99.90
25718;DHT22;13574;52.040;5.692;2023-03-05T08:47:40;10.20;99.90
25718;DHT22;13574;52.040;5.692;2023-03-05T08:50:07;9.90;99.90
25718;DHT22;13574;52.040;5.692;2023-03-05T08:52:32;10.20;99.90
25718;DHT22;13574;52.040;5.692;2023-03-05T08:55:01;10.40;99.90
25718;DHT22;13574;52.040;5.692;2023-03-05T08:57:26;9.80;99.90
25718;DHT22;13574;52.040;5.692;2023-03-05T08:59:52;10.00;99.90
25718;DHT22;13574;52.040;5.692;2023-03-05T09:02:20;10.30;99.90
25718;DHT22;13574;52.040;5.692;2023-03-05T09:04:48;10.50;99.90
25718;DHT22;13574;52.040;5.692;2023-03-05T09:07:14;10.60;99.90
25718;DHT22;13574;52.040;5.692;2023-03-05T09:09:43;10.80;99.90
25718;DHT22;13574;52.040;5.692;2023-03-05T09:12:09;11.20;99.90
25718;DHT22;13574;52.040;5.692;2023-03-05T09:14:36;11.30;99.90
25718;DHT22;13574;52.040;5.692;2023-03-05T09:17:01;10.20;99.90
25718;DHT22;13574;52.040;5.692;2023-03-05T09:19:27;10.70;99.90
25718;DHT22;13574;52.040;5.692;2023-03-05T09:21:53;11.20;99.90
25718;DHT22;13574;52.040;5.692;2023-03-05T09:24:19;11.50;99.90
25718;DHT22;13574;52.040;5.692;2023-03-05T09:26:44;11.80;99.90
25718;DHT22;13574;52.040;5.692;2023-03-05T09:29:10;12.10;99.90
25718;DHT22;13574;52.040;5.692;2023-03-05T09:31:36;11.90;99.90
25718;DHT22;13574;52.040;5.692;2023-03-05T09:34:05;12.10;99.90
25718;DHT22;13574;52.040;5.692;2023-03-05T09:36:32;12.30;99.90
25718;DHT22;13574;52.040;5.692;2023-03-05T09:39:01;12.40;99.90
25718;DHT22;13574;52.040;5.692;2023-03-05T09:48:00;12.40;99.90
25718;DHT22;13574;52.040;5.692;2023-03-05T09:50:32;12.30;99.90
25718;DHT22;13574;52.040;5.692;2023-03-05T09:53:15;11.50;99.90
25718;DHT22;13574;52.040;5.692;2023-03-05T09:55:49;11.50;99.90
25718;DHT22;13574;52.040;5.692;2023-03-05T09:58:33;11.50;99.90
25718;DHT22;13574;52.040;5.692;2023-03-05T10:04:09;12.10;99.90
25718;DHT22;13574;52.040;5.692;2023-03-05T10:06:58;12.10;99.90
25718;DHT22;13574;52.040;5.692;2023-03-05T10:12:25;12.30;99.90
25718;DHT22;13574;52.040;5.692;2023-03-05T10:14:53;12.10;99.90
25718;DHT22;13574;52.040;5.692;2023-03-05T10:17:38;11.40;99.90
25718;DHT22;13574;52.040;5.692;2023-03-05T10:26:04;11.80;99.90
25718;DHT22;13574;52.040;5.692;2023-03-05T10:28:45;12.10;99.90
25718;DHT22;13574;52.040;5.692;2023-03-05T10:32:02;12.30;99.90
25718;DHT22;13574;52.040;5.692;2023-03-05T10:34:19;12.60;99.90
25718;DHT22;13574;52.040;5.692;2023-03-05T10:37:09;12.60;99.90
25718;DHT22;13574;52.040;5.692;2023-03-05T10:40:02;12.90;99.90
25718;DHT22;13574;52.040;5.692;2023-03-05T10:43:06;12.50;99.90
25718;DHT22;13574;52.040;5.692;2023-03-05T10:45:43;12.30;99.90
25718;DHT22;13574;52.040;5.692;2023-03-05T10:48:25;12.00;99.90
25718;DHT22;13574;52.040;5.692;2023-03-05T10:53:56;12.20;99.90
25718;DHT22;13574;52.040;5.692;2023-03-05T10:56:31;12.50;99.90
25718;DHT22;13574;52.040;5.692;2023-03-05T10:58:59;12.50;99.90
25718;DHT22;13574;52.040;5.692;2023-03-05T11:02:00;12.40;99.90
25718;DHT22;13574;52.040;5.692;2023-03-05T11:04:29;12.60;99.90
25718;DHT22;13574;52.040;5.692;2023-03-05T11:07:11;12.80;99.90
25718;DHT22;13574;52.040;5.692;2023-03-05T11:12:33;12.90;99.90
25718;DHT22;13574;52.040;5.692;2023-03-05T11:17:42;13.10;99.90
25718;DHT22;13574;52.040;5.692;2023-03-05T11:25:29;12.00;99.90
25718;DHT22;13574;52.040;5.692;2023-03-05T11:27:56;12.40;99.90
25718;DHT22;13574;52.040;5.692;2023-03-05T11:30:29;12.60;99.90
25718;DHT22;13574;52.040;5.692;2023-03-05T11:33:13;12.90;99.90
25718;DHT22;13574;52.040;5.692;2023-03-05T11:35:41;12.70;99.90
25718;DHT22;13574;52.040;5.692;2023-03-05T11:38:22;13.10;99.90
25718;DHT22;13574;52.040;5.692;2023-03-05T11:40:49;13.30;99.90
25718;DHT22;13574;52.040;5.692;2023-03-05T11:43:21;13.60;99.90
25718;DHT22;13574;52.040;5.692;2023-03-05T11:45:53;13.80;99.10
25718;DHT22;13574;52.040;5.692;2023-03-05T11:48:43;13.70;98.80
25718;DHT22;13574;52.040;5.692;2023-03-05T11:51:21;13.00;98.90
25718;DHT22;13574;52.040;5.692;2023-03-05T11:53:54;13.20;99.30
25718;DHT22;13574;52.040;5.692;2023-03-05T11:56:29;13.20;99.70
25718;DHT22;13574;52.040;5.692;2023-03-05T11:59:03;13.40;99.50
25718;DHT22;13574;52.040;5.692;2023-03-05T12:01:37;13.30;98.60
25718;DHT22;13574;52.040;5.692;2023-03-05T12:04:05;13.20;99.50
25718;DHT22;13574;52.040;5.692;2023-03-05T12:06:46;13.10;99.40
25718;DHT22;13574;52.040;5.692;2023-03-05T12:09:26;12.60;98.10
25718;DHT22;13574;52.040;5.692;2023-03-05T12:12:06;12.40;99.80
25718;DHT22;13574;52.040;5.692;2023-03-05T12:14:57;12.50;99.20
25718;DHT22;13574;52.040;5.692;2023-03-05T12:20:45;11.70;98.70
25718;DHT22;13574;52.040;5.692;2023-03-05T12:23:21;11.20;98.50
25718;DHT22;13574;52.040;5.692;2023-03-05T12:26:04;11.50;99.70
25718;DHT22;13574;52.040;5.692;2023-03-05T12:31:33;12.10;99.50
25718;DHT22;13574;52.040;5.692;2023-03-05T12:37:13;12.50;97.30
25718;DHT22;13574;52.040;5.692;2023-03-05T12:43:35;12.70;98.50
25718;DHT22;13574;52.040;5.692;2023-03-05T12:51:55;12.10;98.00
25718;DHT22;13574;52.040;5.692;2023-03-05T12:57:28;11.40;99.60
25718;DHT22;13574;52.040;5.692;2023-03-05T13:06:39;12.30;98.40
25718;DHT22;13574;52.040;5.692;2023-03-05T13:11:49;11.60;98.20
25718;DHT22;13574;52.040;5.692;2023-03-05T13:14:44;11.70;98.30
25718;DHT22;13574;52.040;5.692;2023-03-05T13:24:43;10.80;98.80
25718;DHT22;13574;52.040;5.692;2023-03-05T13:27:30;10.90;99.60
25718;DHT22;13574;52.040;5.692;2023-03-05T13:29:56;10.50;99.40
25718;DHT22;13574;52.040;5.692;2023-03-05T13:56:17;13.00;97.40
25718;DHT22;13574;52.040;5.692;2023-03-05T14:23:20;11.90;97.10
25718;DHT22;13574;52.040;5.692;2023-03-05T14:25:45;12.10;97.60
25718;DHT22;13574;52.040;5.692;2023-03-05T14:30:48;11.00;98.50
25718;DHT22;13574;52.040;5.692;2023-03-05T14:33:24;11.30;98.70
25718;DHT22;13574;52.040;5.692;2023-03-05T14:35:51;11.60;98.70
25718;DHT22;13574;52.040;5.692;2023-03-05T14:38:26;11.60;97.40
25718;DHT22;13574;52.040;5.692;2023-03-05T14:40:53;11.30;97.30
25718;DHT22;13574;52.040;5.692;2023-03-05T14:43:19;11.60;97.70
25718;DHT22;13574;52.040;5.692;2023-03-05T14:45:47;11.70;97.10
25718;DHT22;13574;52.040;5.692;2023-03-05T14:48:15;11.10;98.00
25718;DHT22;13574;52.040;5.692;2023-03-05T14:50:45;11.00;98.70
25718;DHT22;13574;52.040;5.692;2023-03-05T14:53:25;10.90;97.90
25718;DHT22;13574;52.040;5.692;2023-03-05T14:55:54;11.10;98.90
25718;DHT22;13574;52.040;5.692;2023-03-05T14:58:25;11.30;98.00
25718;DHT22;13574;52.040;5.692;2023-03-05T15:01:05;11.10;98.70
25718;DHT22;13574;52.040;5.692;2023-03-05T15:11:30;11.40;98.70
25718;DHT22;13574;52.040;5.692;2023-03-05T15:16:48;11.50;99.00
25718;DHT22;13574;52.040;5.692;2023-03-05T15:19:17;11.50;99.10
25718;DHT22;13574;52.040;5.692;2023-03-05T15:21:50;11.50;98.80
25718;DHT22;13574;52.040;5.692;2023-03-05T15:24:16;11.70;99.30
25718;DHT22;13574;52.040;5.692;2023-03-05T15:27:03;11.80;99.60
25718;DHT22;13574;52.040;5.692;2023-03-05T15:29:32;11.70;99.00
25718;DHT22;13574;52.040;5.692;2023-03-05T15:32:33;12.00;99.30
25718;DHT22;13574;52.040;5.692;2023-03-05T15:35:28;12.20;99.20
25718;DHT22;13574;52.040;5.692;2023-03-05T15:38:05;12.40;99.50
25718;DHT22;13574;52.040;5.692;2023-03-05T15:40:40;12.60;99.10
25718;DHT22;13574;52.040;5.692;2023-03-05T15:46:37;12.60;98.30
25718;DHT22;13574;52.040;5.692;2023-03-05T15:53:06;12.60;98.60
25718;DHT22;13574;52.040;5.692;2023-03-05T15:55:50;12.30;98.50
25718;DHT22;13574;52.040;5.692;2023-03-05T15:58:16;12.00;98.50
25718;DHT22;13574;52.040;5.692;2023-03-05T16:00:45;11.80;99.10
25718;DHT22;13574;52.040;5.692;2023-03-05T16:03:15;11.60;99.50
25718;DHT22;13574;52.040;5.692;2023-03-05T16:05:52;11.60;99.90
25718;DHT22;13574;52.040;5.692;2023-03-05T16:08:20;11.40;99.90
25718;DHT22;13574;52.040;5.692;2023-03-05T16:16:47;10.60;99.90
25718;DHT22;13574;52.040;5.692;2023-03-05T16:19:21;10.80;99.90
25718;DHT22;13574;52.040;5.692;2023-03-05T16:22:05;10.60;99.90
25718;DHT22;13574;52.040;5.692;2023-03-05T16:25:13;10.60;99.90
25718;DHT22;13574;52.040;5.692;2023-03-05T16:32:03;10.90;99.90
25718;DHT22;13574;52.040;5.692;2023-03-05T16:35:25;11.00;99.90
25718;DHT22;13574;52.040;5.692;2023-03-05T16:37:53;11.00;99.90
25718;DHT22;13574;52.040;5.692;2023-03-05T16:40:22;11.10;99.90
25718;DHT22;13574;52.040;5.692;2023-03-05T16:43:04;11.00;99.90
25718;DHT22;13574;52.040;5.692;2023-03-05T16:45:50;10.90;99.90
25718;DHT22;13574;52.040;5.692;2023-03-05T16:48:16;11.00;99.90
25718;DHT22;13574;52.040;5.692;2023-03-05T16:50:42;10.90;99.90
25718;DHT22;13574;52.040;5.692;2023-03-05T16:53:07;11.10;99.90
25718;DHT22;13574;52.040;5.692;2023-03-05T16:55:33;11.10;99.90
25718;DHT22;13574;52.040;5.692;2023-03-05T16:58:00;11.20;99.90
25718;DHT22;13574;52.040;5.692;2023-03-05T17:00:26;11.10;99.90
25718;DHT22;13574;52.040;5.692;2023-03-05T17:02:52;11.20;99.90
25718;DHT22;13574;52.040;5.692;2023-03-05T17:05:18;11.20;99.90
25718;DHT22;13574;52.040;5.692;2023-03-05T17:07:59;11.20;99.90
25718;DHT22;13574;52.040;5.692;2023-03-05T17:10:41;11.30;99.90
25718;DHT22;13574;52.040;5.692;2023-03-05T18:02:14;10.40;99.90
25718;DHT22;13574;52.040;5.692;2023-03-05T18:04:46;10.40;99.90
25718;DHT22;13574;52.040;5.692;2023-03-05T18:07:20;10.40;99.90
25718;DHT22;13574;52.040;5.692;2023-03-05T18:13:45;10.30;99.90
25718;DHT22;13574;52.040;5.692;2023-03-05T18:19:23;10.40;99.90
25718;DHT22;13574;52.040;5.692;2023-03-05T18:22:02;10.40;99.90
25718;DHT22;13574;52.040;5.692;2023-03-05T18:34:51;10.50;99.90
25718;DHT22;13574;52.040;5.692;2023-03-05T18:43:05;10.50;99.90
25718;DHT22;13574;52.040;5.692;2023-03-05T18:45:39;10.60;99.90
25718;DHT22;13574;52.040;5.692;2023-03-05T18:48:09;10.60;99.90
25718;DHT22;13574;52.040;5.692;2023-03-05T18:50:43;10.60;99.90
25718;DHT22;13574;52.040;5.692;2023-03-05T18:53:16;10.60;99.90
25718;DHT22;13574;52.040;5.692;2023-03-05T18:55:42;10.60;99.90
25718;DHT22;13574;52.040;5.692;2023-03-05T18:58:14;10.60;99.90
25718;DHT22;13574;52.040;5.692;2023-03-05T19:01:08;10.50;99.90
25718;DHT22;13574;52.040;5.692;2023-03-05T19:03:34;10.50;99.90
25718;DHT22;13574;52.040;5.692;2023-03-05T19:06:33;10.40;99.90
25718;DHT22;13574;52.040;5.692;2023-03-05T19:12:28;10.40;99.90
25718;DHT22;13574;52.040;5.692;2023-03-05T19:15:03;10.40;99.90
25718;DHT22;13574;52.040;5.692;2023-03-05T19:17:49;10.40;99.90
25718;DHT22;13574;52.040;5.692;2023-03-05T19:20:36;10.20;99.90
25718;DHT22;13574;52.040;5.692;2023-03-05T19:25:42;10.30;99.90
25718;DHT22;13574;52.040;5.692;2023-03-05T19:28:08;10.10;99.90
25718;DHT22;13574;52.040;5.692;2023-03-05T19:30:42;10.20;99.90
25718;DHT22;13574;52.040;5.692;2023-03-05T19:33:11;10.20;99.90
25718;DHT22;13574;52.040;5.692;2023-03-05T19:35:39;10.20;99.90
25718;DHT22;13574;52.040;5.692;2023-03-05T19:40:58;10.20;99.90
25718;DHT22;13574;52.040;5.692;2023-03-05T19:43:32;10.20;99.90
25718;DHT22;13574;52.040;5.692;2023-03-05T19:46:05;10.20;99.90
25718;DHT22;13574;52.040;5.692;2023-03-05T19:48:35;10.20;99.90
25718;DHT22;13574;52.040;5.692;2023-03-05T19:51:15;10.20;99.90
25718;DHT22;13574;52.040;5.692;2023-03-05T19:53:42;10.30;99.90
25718;DHT22;13574;52.040;5.692;2023-03-05T19:56:11;10.30;99.90